createdAt,value
2022-08-19T00:00:23.483Z,70.80
2022-08-19T00:01:29.126Z,70.71
2022-08-19T00:02:32.461Z,70.53
2022-08-19T00:03:35.281Z,70.72
2022-08-19T00:04:37.802Z,70.69
2022-08-19T00:05:40.216Z,70.52
2022-08-19T00:06:45.434Z,70.34
2022-08-19T00:07:49.588Z,70.34
2022-08-19T00:08:51.819Z,70.27
2022-08-19T00:09:54.171Z,70.32
2022-08-19T00:10:58.583Z,70.37
2022-08-19T00:12:01.445Z,70.30
2022-08-19T00:13:03.786Z,70.30
2022-08-19T00:14:07.479Z,70.65
2022-08-19T00:15:14.477Z,70.77
2022-08-19T00:16:18.984Z,71.23
2022-08-19T00:17:23.195Z,71.42
2022-08-19T00:18:25.861Z,71.74
2022-08-19T00:19:28.001Z,71.75
2022-08-19T00:20:30.492Z,72.11
2022-08-19T00:21:32.691Z,71.96
2022-08-19T00:22:34.961Z,71.87
2022-08-19T00:23:37.350Z,71.76
2022-08-19T00:24:39.516Z,71.61
2022-08-19T00:25:42.632Z,71.47
2022-08-19T00:26:47.353Z,71.61
2022-08-19T00:27:49.782Z,71.95
2022-08-19T00:28:51.849Z,72.32
2022-08-19T00:29:54.243Z,72.38
2022-08-19T00:30:57.839Z,72.36
2022-08-19T00:32:00.059Z,72.41
2022-08-19T00:33:02.922Z,72.71
2022-08-19T00:34:05.196Z,72.69
2022-08-19T00:35:08.746Z,72.93
2022-08-19T00:36:13.178Z,73.27
2022-08-19T00:37:15.551Z,73.44
2022-08-19T00:38:17.591Z,73.31
2022-08-19T00:39:21.702Z,73.17
2022-08-19T00:40:26.830Z,73.21
2022-08-19T00:41:30.318Z,73.13
2022-08-19T00:42:32.889Z,73.20
2022-08-19T00:43:34.972Z,72.95
2022-08-19T00:44:37.513Z,72.95
2022-08-19T00:45:41.199Z,72.87
2022-08-19T00:46:55.390Z,72.88
2022-08-19T00:47:50.535Z,72.85
2022-08-19T00:48:52.616Z,73.14
2022-08-19T00:49:58.226Z,73.18
2022-08-19T00:51:01.514Z,73.14
2022-08-19T00:52:07.355Z,72.98
2022-08-19T00:53:14.936Z,72.96
2022-08-19T00:54:18.024Z,73.10
2022-08-19T00:55:23.682Z,73.39
2022-08-19T00:56:26.925Z,73.56
2022-08-19T00:57:32.562Z,73.58
2022-08-19T00:58:36.474Z,73.43
2022-08-19T01:00:00.781Z,73.54
2022-08-19T01:00:46.059Z,73.53
2022-08-19T01:01:48.719Z,73.94
2022-08-19T01:02:52.592Z,74.08
2022-08-19T01:03:58.199Z,74.38
2022-08-19T01:05:03.969Z,74.52
2022-08-19T01:06:07.624Z,74.62
2022-08-19T01:07:10.523Z,74.57
2022-08-19T01:08:16.882Z,74.54
2022-08-19T01:09:19.050Z,74.40
2022-08-19T01:10:25.905Z,74.30
2022-08-19T01:11:30.016Z,74.24
2022-08-19T01:12:32.400Z,74.40
2022-08-19T01:13:49.483Z,74.72
2022-08-19T01:14:40.470Z,75.01
2022-08-19T01:15:46.041Z,75.69
2022-08-19T01:16:48.270Z,75.69
2022-08-19T01:17:52.389Z,75.45
2022-08-19T01:18:55.043Z,75.69
2022-08-19T01:19:57.726Z,76.04
2022-08-19T01:21:03.787Z,76.04
2022-08-19T01:22:14.393Z,75.68
2022-08-19T01:23:17.091Z,75.52
2022-08-19T01:24:19.247Z,75.75
2022-08-19T01:25:25.092Z,75.58
2022-08-19T01:26:31.306Z,75.55
2022-08-19T01:27:43.671Z,75.90
2022-08-19T01:28:48.889Z,75.96
2022-08-19T01:29:52.898Z,75.94
2022-08-19T01:30:56.248Z,76.41
2022-08-19T01:31:59.179Z,76.74
2022-08-19T01:33:02.621Z,76.82
2022-08-19T01:34:05.491Z,76.83
2022-08-19T01:35:09.085Z,76.87
2022-08-19T01:36:15.381Z,76.65
2022-08-19T01:37:24.897Z,76.65
2022-08-19T01:39:35.055Z,77.08
2022-08-19T01:40:40.134Z,77.20
2022-08-19T01:41:42.663Z,77.19
2022-08-19T01:42:44.852Z,77.13
2022-08-19T01:44:13.981Z,77.30
2022-08-19T01:44:51.124Z,78.01
2022-08-19T01:45:53.210Z,78.05
2022-08-19T01:46:55.742Z,78.16
2022-08-19T01:48:02.017Z,77.95
2022-08-19T01:49:04.896Z,77.95
2022-08-19T01:50:09.897Z,77.90
2022-08-19T01:51:12.932Z,77.87
2022-08-19T01:52:15.096Z,77.87
2022-08-19T01:53:17.279Z,77.53
2022-08-19T01:54:26.955Z,77.53
2022-08-19T01:55:25.399Z,77.39
2022-08-19T01:56:27.962Z,77.47
2022-08-19T01:57:30.280Z,77.81
2022-08-19T01:58:39.066Z,77.60
2022-08-19T01:59:43.201Z,77.45
2022-08-19T02:00:45.781Z,78.02
2022-08-19T02:01:47.883Z,78.00
2022-08-19T02:02:50.436Z,77.92
2022-08-19T02:03:52.615Z,78.46
2022-08-19T02:04:56.685Z,78.65
2022-08-19T02:06:00.991Z,78.66
2022-08-19T02:07:03.266Z,78.68
2022-08-19T02:08:05.726Z,78.68
2022-08-19T02:09:08.591Z,78.58
2022-08-19T02:10:18.127Z,78.63
2022-08-19T02:12:33.941Z,78.68
2022-08-19T02:13:38.009Z,78.62
2022-08-19T02:14:40.672Z,78.39
2022-08-19T02:15:43.041Z,78.24
2022-08-19T02:16:45.409Z,78.45
2022-08-19T02:17:47.966Z,78.62
2022-08-19T02:18:51.252Z,78.55
2022-08-19T02:19:54.535Z,78.23
2022-08-19T02:20:56.825Z,78.11
2022-08-19T02:22:00.413Z,77.85
2022-08-19T02:23:02.596Z,77.99
2022-08-19T02:24:05.366Z,78.06
2022-08-19T02:25:08.190Z,78.03
2022-08-19T02:26:12.610Z,78.05
2022-08-19T02:27:15.621Z,77.93
2022-08-19T02:28:19.012Z,77.99
2022-08-19T02:29:22.352Z,77.92
2022-08-19T02:30:25.992Z,77.95
2022-08-19T02:31:28.212Z,77.81
2022-08-19T02:32:30.455Z,77.86
2022-08-19T02:33:32.502Z,77.74
2022-08-19T02:34:36.756Z,77.85
2022-08-19T02:35:44.488Z,77.72
2022-08-19T02:36:51.750Z,77.89
2022-08-19T02:37:50.880Z,77.92
2022-08-19T02:38:54.983Z,77.85
2022-08-19T02:39:58.106Z,77.67
2022-08-19T02:41:03.977Z,77.54
2022-08-19T02:42:06.338Z,77.46
2022-08-19T02:43:10.264Z,78.16
2022-08-19T02:44:30.883Z,78.38
2022-08-19T02:45:17.384Z,78.42
2022-08-19T02:46:24.424Z,78.33
2022-08-19T02:47:26.777Z,78.02
2022-08-19T02:48:29.036Z,78.10
2022-08-19T02:49:34.662Z,78.02
2022-08-19T02:50:40.173Z,77.96
2022-08-19T02:51:46.468Z,78.06
2022-08-19T02:52:48.950Z,78.29
2022-08-19T02:53:51.821Z,78.09
2022-08-19T02:54:54.121Z,77.97
2022-08-19T02:55:56.317Z,78.18
2022-08-19T02:56:58.795Z,78.03
2022-08-19T02:58:01.449Z,78.07
2022-08-19T02:59:04.731Z,78.12
2022-08-19T03:00:07.970Z,78.42
2022-08-19T03:01:11.334Z,78.01
2022-08-19T03:02:13.666Z,78.32
2022-08-19T03:03:16.642Z,78.32
2022-08-19T03:04:18.904Z,78.23
2022-08-19T03:05:21.223Z,78.00
2022-08-19T03:06:27.308Z,77.74
2022-08-19T03:07:29.569Z,77.68
2022-08-19T03:08:32.264Z,77.86
2022-08-19T03:09:38.802Z,77.89
2022-08-19T03:10:44.007Z,78.00
2022-08-19T03:11:46.594Z,78.05
2022-08-19T03:12:50.685Z,77.92
2022-08-19T03:13:52.961Z,77.95
2022-08-19T03:14:55.031Z,77.88
2022-08-19T03:15:57.178Z,78.01
2022-08-19T03:17:00.282Z,78.02
2022-08-19T03:18:02.410Z,77.85
2022-08-19T03:19:05.376Z,77.82
2022-08-19T03:20:09.247Z,77.98
2022-08-19T03:21:20.858Z,77.97
2022-08-19T03:22:23.359Z,77.93
2022-08-19T03:23:25.513Z,77.71
2022-08-19T03:24:28.221Z,77.97
2022-08-19T03:25:30.264Z,77.84
2022-08-19T03:26:33.325Z,77.77
2022-08-19T03:27:35.746Z,77.75
2022-08-19T03:28:38.295Z,77.77
2022-08-19T03:29:43.805Z,77.70
2022-08-19T03:30:58.239Z,77.45
2022-08-19T03:32:05.642Z,77.56
2022-08-19T03:33:10.393Z,77.57
2022-08-19T03:34:17.925Z,77.38
2022-08-19T03:35:20.338Z,77.37
2022-08-19T03:36:26.302Z,77.14
2022-08-19T03:37:30.298Z,77.02
2022-08-19T03:38:33.116Z,77.03
2022-08-19T03:39:38.828Z,77.07
2022-08-19T03:40:41.205Z,77.11
2022-08-19T03:41:48.130Z,77.47
2022-08-19T03:42:49.744Z,77.50
2022-08-19T03:43:53.572Z,77.63
2022-08-19T03:44:55.934Z,77.44
2022-08-19T03:46:07.947Z,77.30
2022-08-19T03:47:10.072Z,77.10
2022-08-19T03:48:12.589Z,77.00
2022-08-19T03:49:16.122Z,77.08
2022-08-19T03:50:20.709Z,76.94
2022-08-19T03:51:30.726Z,76.83
2022-08-19T03:52:33.522Z,76.79
2022-08-19T03:53:35.815Z,76.56
2022-08-19T03:54:38.392Z,76.64
2022-08-19T03:55:43.432Z,77.08
2022-08-19T03:56:48.747Z,77.24
2022-08-19T03:57:50.900Z,77.36
2022-08-19T03:58:53.463Z,77.10
2022-08-19T03:59:55.623Z,77.40
2022-08-19T04:01:00.080Z,77.50
2022-08-19T04:02:05.675Z,77.68
2022-08-19T04:03:07.867Z,77.83
2022-08-19T04:04:10.401Z,77.56
2022-08-19T04:05:13.270Z,77.22
2022-08-19T04:06:22.199Z,77.18
2022-08-19T04:07:24.346Z,76.91
2022-08-19T04:08:26.490Z,76.87
2022-08-19T04:09:28.785Z,76.50
2022-08-19T04:10:33.319Z,76.19
2022-08-19T04:11:42.987Z,76.15
2022-08-19T04:12:42.751Z,75.90
2022-08-19T04:13:44.722Z,76.32
2022-08-19T04:14:47.214Z,76.08
2022-08-19T04:15:49.276Z,76.27
2022-08-19T04:16:52.567Z,76.06
2022-08-19T04:17:54.827Z,76.23
2022-08-19T04:18:59.189Z,76.38
2022-08-19T04:20:01.482Z,76.64
2022-08-19T04:21:08.340Z,76.27
2022-08-19T04:22:10.597Z,76.27
2022-08-19T04:23:14.204Z,76.37
2022-08-19T04:24:17.479Z,76.20
2022-08-19T04:25:19.660Z,75.83
2022-08-19T04:26:28.923Z,76.05
2022-08-19T04:27:31.143Z,76.13
2022-08-19T04:28:34.111Z,76.01
2022-08-19T04:29:36.324Z,75.94
2022-08-19T04:30:43.088Z,75.83
2022-08-19T04:31:45.916Z,75.81
2022-08-19T04:32:48.241Z,75.75
2022-08-19T04:33:50.564Z,75.61
2022-08-19T04:35:02.111Z,75.32
2022-08-19T04:35:57.831Z,75.74
2022-08-19T04:37:00.337Z,75.93
2022-08-19T04:38:03.282Z,75.89
2022-08-19T04:39:08.686Z,75.76
2022-08-19T04:40:12.230Z,75.70
2022-08-19T04:41:15.477Z,75.90
2022-08-19T04:42:18.816Z,75.73
2022-08-19T04:43:21.111Z,76.22
2022-08-19T04:44:23.796Z,76.12
2022-08-19T04:45:26.107Z,75.97
2022-08-19T04:46:40.507Z,76.05
2022-08-19T04:47:47.890Z,75.71
2022-08-19T04:48:44.159Z,75.58
2022-08-19T04:49:45.362Z,75.51
2022-08-19T04:50:47.693Z,75.60
2022-08-19T04:51:51.691Z,75.61
2022-08-19T04:52:54.367Z,75.35
2022-08-19T04:53:57.148Z,75.16
2022-08-19T04:54:59.801Z,75.12
2022-08-19T04:56:05.952Z,75.16
2022-08-19T04:57:10.390Z,75.21
2022-08-19T04:58:12.715Z,75.02
2022-08-19T04:59:17.226Z,75.02
2022-08-19T05:00:21.546Z,74.85
2022-08-19T05:01:27.376Z,74.73
2022-08-19T05:02:29.637Z,74.56
2022-08-19T05:03:31.819Z,74.33
2022-08-19T05:04:34.974Z,74.32
2022-08-19T05:05:45.240Z,74.43
2022-08-19T05:06:48.090Z,74.49
2022-08-19T05:07:50.349Z,74.80
2022-08-19T05:08:52.607Z,74.76
2022-08-19T05:09:58.581Z,74.94
2022-08-19T05:10:59.073Z,75.11
2022-08-19T05:12:01.344Z,75.49
2022-08-19T05:13:04.009Z,75.81
2022-08-19T05:14:07.781Z,75.66
2022-08-19T05:15:11.127Z,75.64
2022-08-19T05:16:15.247Z,75.50
2022-08-19T05:17:38.318Z,75.48
2022-08-19T05:18:23.087Z,75.36
2022-08-19T05:19:25.237Z,74.96
2022-08-19T05:20:27.406Z,74.75
2022-08-19T05:21:30.581Z,74.74
2022-08-19T05:22:33.144Z,74.43
2022-08-19T05:23:35.412Z,74.56
2022-08-19T05:24:51.237Z,74.60
2022-08-19T05:25:41.907Z,74.30
2022-08-19T05:26:47.924Z,74.05
2022-08-19T05:27:50.099Z,73.96
2022-08-19T05:28:54.668Z,73.86
2022-08-19T05:29:57.283Z,74.02
2022-08-19T05:30:59.683Z,74.91
2022-08-19T05:32:05.433Z,74.91
2022-08-19T05:33:10.595Z,73.42
2022-08-19T05:34:20.355Z,73.87
2022-08-19T05:35:18.333Z,73.18
2022-08-19T05:36:20.851Z,73.40
2022-08-19T05:37:24.361Z,73.49
2022-08-19T05:38:26.673Z,73.60
2022-08-19T05:39:31.642Z,73.45
2022-08-19T05:40:36.238Z,73.38
2022-08-19T05:41:49.516Z,73.49
2022-08-19T05:42:55.102Z,73.81
2022-08-19T05:43:58.427Z,73.67
2022-08-19T05:45:00.636Z,73.62
2022-08-19T05:46:03.233Z,73.45
2022-08-19T05:47:07.660Z,73.50
2022-08-19T05:48:12.146Z,73.14
2022-08-19T05:49:16.227Z,73.24
2022-08-19T05:50:19.931Z,73.23
2022-08-19T05:51:26.197Z,72.69
2022-08-19T05:52:27.216Z,73.07
2022-08-19T05:53:29.461Z,73.21
2022-08-19T05:54:32.140Z,73.14
2022-08-19T05:55:35.524Z,72.91
2022-08-19T05:56:38.096Z,72.91
2022-08-19T05:57:40.379Z,73.25
2022-08-19T05:58:43.738Z,72.92
2022-08-19T05:59:45.995Z,72.73
2022-08-19T06:00:48.713Z,72.60
2022-08-19T06:01:53.697Z,72.56
2022-08-19T06:02:56.866Z,72.71
2022-08-19T06:03:59.227Z,72.71
2022-08-19T06:05:03.874Z,72.82
2022-08-19T06:06:09.878Z,72.86
2022-08-19T06:07:13.070Z,72.62
2022-08-19T06:08:15.989Z,72.37
2022-08-19T06:09:19.848Z,72.24
2022-08-19T06:10:24.400Z,72.47
2022-08-19T06:11:37.172Z,72.58
2022-08-19T06:12:39.804Z,72.46
2022-08-19T06:13:44.256Z,72.20
2022-08-19T06:14:46.414Z,72.09
2022-08-19T06:15:50.616Z,71.82
2022-08-19T06:16:53.079Z,71.89
2022-08-19T06:17:56.695Z,71.70
2022-08-19T06:19:01.185Z,71.77
2022-08-19T06:20:11.011Z,71.54
2022-08-19T06:21:13.375Z,71.49
2022-08-19T06:22:15.539Z,71.28
2022-08-19T06:23:17.843Z,71.31
2022-08-19T06:24:24.664Z,71.46
2022-08-19T06:25:30.464Z,71.56
2022-08-19T06:26:31.949Z,71.45
2022-08-19T06:27:35.507Z,71.56
2022-08-19T06:28:38.413Z,71.66
2022-08-19T06:29:41.290Z,71.41
2022-08-19T06:30:45.381Z,71.27
2022-08-19T06:31:50.003Z,71.31
2022-08-19T06:32:52.374Z,71.10
2022-08-19T06:33:56.673Z,71.16
2022-08-19T06:34:58.780Z,70.82
2022-08-19T06:36:00.824Z,70.80
2022-08-19T06:37:03.206Z,71.08
2022-08-19T06:38:06.439Z,71.18
2022-08-19T06:39:15.415Z,71.59
2022-08-19T06:40:20.730Z,71.59
2022-08-19T06:41:23.013Z,71.17
2022-08-19T06:42:25.304Z,71.37
2022-08-19T06:43:28.188Z,71.00
2022-08-19T06:44:33.713Z,70.90
2022-08-19T06:45:39.432Z,70.72
2022-08-19T06:46:42.532Z,70.61
2022-08-19T06:47:45.297Z,70.37
2022-08-19T06:48:50.744Z,70.53
2022-08-19T06:50:01.355Z,69.92
2022-08-19T06:51:02.247Z,70.18
2022-08-19T06:52:07.993Z,70.04
2022-08-19T06:53:10.228Z,70.06
2022-08-19T06:54:19.325Z,70.48
2022-08-19T06:55:16.576Z,70.16
2022-08-19T06:56:28.334Z,70.03
2022-08-19T06:57:30.623Z,70.06
2022-08-19T06:58:33.951Z,70.22
2022-08-19T06:59:36.065Z,70.16
2022-08-19T07:00:38.941Z,70.08
2022-08-19T07:01:45.201Z,70.27
2022-08-19T07:02:52.379Z,70.27
2022-08-19T07:03:51.455Z,70.25
2022-08-19T07:04:53.957Z,70.01
2022-08-19T07:05:56.172Z,69.66
2022-08-19T07:07:15.167Z,69.58
2022-08-19T07:08:08.991Z,69.64
2022-08-19T07:09:14.258Z,69.81
2022-08-19T07:10:19.602Z,70.39
2022-08-19T07:11:21.805Z,70.24
2022-08-19T07:12:27.235Z,70.16
2022-08-19T07:13:29.521Z,69.80
2022-08-19T07:14:32.173Z,70.45
2022-08-19T07:15:34.224Z,70.13
2022-08-19T07:16:41.233Z,70.07
2022-08-19T07:17:42.455Z,69.86
2022-08-19T07:18:50.480Z,70.03
2022-08-19T07:19:54.258Z,69.88
2022-08-19T07:22:17.417Z,70.29
2022-08-19T07:23:20.294Z,70.41
2022-08-19T07:24:26.307Z,69.92
2022-08-19T07:25:32.296Z,70.44
2022-08-19T07:26:36.084Z,70.07
2022-08-19T07:27:40.070Z,70.11
2022-08-19T07:28:46.193Z,70.03
2022-08-19T07:29:47.325Z,69.73
2022-08-19T07:30:52.783Z,69.84
2022-08-19T07:31:56.560Z,69.50
2022-08-19T07:32:59.368Z,69.58
2022-08-19T07:34:06.941Z,69.42
2022-08-19T07:35:09.823Z,69.50
2022-08-19T07:36:15.378Z,69.42
2022-08-19T07:37:18.701Z,69.14
2022-08-19T07:38:20.861Z,69.14
2022-08-19T07:39:26.490Z,69.44
2022-08-19T07:40:30.809Z,69.58
2022-08-19T07:41:33.004Z,69.34
2022-08-19T07:42:35.298Z,69.37
2022-08-19T07:43:39.068Z,69.08
2022-08-19T07:44:43.179Z,69.59
2022-08-19T07:45:46.934Z,69.72
2022-08-19T07:46:53.411Z,68.94
2022-08-19T07:47:55.648Z,68.46
2022-08-19T07:48:58.451Z,68.71
2022-08-19T07:50:00.772Z,68.82
2022-08-19T07:51:05.806Z,68.69
2022-08-19T07:52:10.762Z,68.33
2022-08-19T07:53:12.978Z,68.29
2022-08-19T07:54:15.063Z,68.34
2022-08-19T07:55:40.593Z,68.61
2022-08-19T07:56:27.596Z,68.53
2022-08-19T07:57:29.802Z,68.29
2022-08-19T07:58:35.352Z,68.55
2022-08-19T07:59:37.578Z,68.36
2022-08-19T08:00:40.155Z,67.99
2022-08-19T08:01:43.425Z,68.14
2022-08-19T08:02:45.666Z,67.89
2022-08-19T08:03:51.603Z,67.98
2022-08-19T08:04:54.300Z,68.16
2022-08-19T08:05:56.587Z,67.92
2022-08-19T08:06:59.142Z,67.92
2022-08-19T08:08:01.302Z,68.07
2022-08-19T08:09:05.488Z,67.80
2022-08-19T08:10:20.046Z,67.81
2022-08-19T08:11:19.880Z,67.72
2022-08-19T08:12:34.769Z,67.95
2022-08-19T08:13:32.713Z,67.92
2022-08-19T08:14:44.577Z,67.69
2022-08-19T08:15:49.627Z,67.44
2022-08-19T08:16:54.410Z,67.15
2022-08-19T08:17:57.185Z,66.66
2022-08-19T08:18:59.261Z,66.91
2022-08-19T08:20:01.950Z,66.91
2022-08-19T08:21:04.252Z,66.30
2022-08-19T08:22:06.422Z,66.61
2022-08-19T08:23:09.627Z,66.95
2022-08-19T08:24:13.541Z,66.53
2022-08-19T08:25:19.334Z,66.25
2022-08-19T08:26:24.981Z,66.41
2022-08-19T08:27:27.215Z,65.91
2022-08-19T08:28:29.996Z,65.88
2022-08-19T08:29:34.952Z,65.52
2022-08-19T08:30:37.400Z,65.48
2022-08-19T08:31:44.781Z,65.42
2022-08-19T08:32:47.621Z,65.79
2022-08-19T08:33:52.792Z,65.73
2022-08-19T08:34:55.143Z,65.48
2022-08-19T08:35:57.602Z,65.47
2022-08-19T08:37:00.271Z,64.53
2022-08-19T08:38:03.658Z,64.65
2022-08-19T08:39:06.020Z,64.74
2022-08-19T08:40:19.176Z,64.63
2022-08-19T08:41:37.265Z,64.37
2022-08-19T08:42:43.424Z,64.54
2022-08-19T08:43:49.257Z,63.95
2022-08-19T08:45:00.996Z,64.04
2022-08-19T08:46:15.794Z,64.31
2022-08-19T08:47:22.978Z,64.58
2022-08-19T08:48:30.045Z,64.54
2022-08-19T08:49:35.799Z,64.69
2022-08-19T08:50:44.505Z,64.67
2022-08-19T08:51:59.330Z,63.76
2022-08-19T08:52:58.746Z,64.06
2022-08-19T08:54:04.390Z,63.87
2022-08-19T08:55:10.661Z,63.73
2022-08-19T08:56:17.088Z,63.66
2022-08-19T08:57:23.008Z,64.04
2022-08-19T08:58:28.719Z,64.08
2022-08-19T08:59:33.908Z,63.74
2022-08-19T09:00:43.070Z,63.43
2022-08-19T09:01:45.239Z,63.42
2022-08-19T09:02:50.318Z,62.71
2022-08-19T09:03:52.971Z,62.81
2022-08-19T09:04:56.462Z,62.28
2022-08-19T09:06:22.179Z,62.34
2022-08-19T09:07:36.046Z,62.04
2022-08-19T09:08:56.666Z,61.84
2022-08-19T09:10:01.058Z,61.40
2022-08-19T09:11:07.553Z,61.08
2022-08-19T09:12:29.492Z,61.00
2022-08-19T09:13:53.602Z,60.84
2022-08-19T09:14:59.346Z,60.83
2022-08-19T09:16:07.875Z,59.99
2022-08-19T09:17:10.617Z,60.17
2022-08-19T09:18:15.264Z,60.16
2022-08-19T09:19:17.058Z,60.15
2022-08-19T09:20:24.172Z,59.84
2022-08-19T09:21:30.346Z,60.22
2022-08-19T09:22:33.694Z,60.29
2022-08-19T09:23:37.277Z,60.35
2022-08-19T09:24:39.439Z,60.27
2022-08-19T09:25:41.528Z,60.14
2022-08-19T09:26:48.370Z,59.81
2022-08-19T09:27:48.642Z,59.89
2022-08-19T09:28:52.734Z,59.87
2022-08-19T09:29:55.614Z,59.98
2022-08-19T09:30:58.104Z,60.07
2022-08-19T09:32:00.341Z,59.85
2022-08-19T09:33:03.269Z,59.85
2022-08-19T09:34:06.099Z,60.09
2022-08-19T09:35:09.084Z,60.80
2022-08-19T09:36:24.331Z,60.79
2022-08-19T09:37:22.464Z,60.63
2022-08-19T09:38:26.497Z,60.29
2022-08-19T09:39:36.109Z,60.58
2022-08-19T09:40:38.245Z,60.55
2022-08-19T09:41:38.294Z,60.42
2022-08-19T09:42:50.072Z,61.02
2022-08-19T09:43:52.985Z,60.25
2022-08-19T09:44:56.021Z,60.18
2022-08-19T09:45:58.179Z,59.60
2022-08-19T09:47:01.161Z,59.66
2022-08-19T09:48:04.136Z,59.67
2022-08-19T09:49:06.868Z,59.56
2022-08-19T09:50:12.071Z,60.13
2022-08-19T09:51:19.078Z,60.06
2022-08-19T09:52:22.998Z,60.20
2022-08-19T09:53:29.180Z,59.51
2022-08-19T09:54:33.092Z,60.01
2022-08-19T09:55:40.752Z,59.71
2022-08-19T09:56:44.649Z,59.62
2022-08-19T09:57:46.792Z,59.27
2022-08-19T09:58:49.456Z,59.14
2022-08-19T09:59:51.827Z,59.71
2022-08-19T10:00:55.783Z,59.45
2022-08-19T10:02:04.036Z,59.87
2022-08-19T10:03:03.586Z,60.33
2022-08-19T10:04:09.444Z,60.57
2022-08-19T10:05:10.605Z,60.71
2022-08-19T10:06:17.397Z,60.41
2022-08-19T10:07:19.316Z,60.40
2022-08-19T10:08:26.444Z,60.31
2022-08-19T10:09:34.250Z,60.42
2022-08-19T10:10:36.639Z,60.36
2022-08-19T10:11:48.001Z,59.98
2022-08-19T10:12:47.126Z,59.47
2022-08-19T10:13:51.825Z,59.96
2022-08-19T10:14:54.002Z,60.11
2022-08-19T10:16:00.636Z,60.20
2022-08-19T10:17:17.440Z,60.00
2022-08-19T10:18:08.441Z,60.26
2022-08-19T10:19:10.726Z,59.73
2022-08-19T10:20:13.855Z,59.98
2022-08-19T10:21:25.584Z,59.55
2022-08-19T10:22:28.387Z,59.79
2022-08-19T10:23:30.688Z,59.42
2022-08-19T10:24:35.189Z,59.73
2022-08-19T10:25:39.142Z,59.62
2022-08-19T10:26:43.755Z,58.83
2022-08-19T10:27:51.440Z,59.43
2022-08-19T10:28:50.687Z,58.49
2022-08-19T10:29:53.050Z,58.11
2022-08-19T10:30:58.229Z,58.27
2022-08-19T10:32:09.320Z,58.07
2022-08-19T10:33:11.555Z,57.64
2022-08-19T10:34:27.086Z,57.05
2022-08-19T10:35:21.830Z,56.90
2022-08-19T10:36:27.092Z,56.34
2022-08-19T10:37:31.332Z,56.31
2022-08-19T10:38:36.564Z,56.69
2022-08-19T10:39:43.262Z,56.64
2022-08-19T10:40:43.910Z,56.12
2022-08-19T10:41:46.563Z,56.03
2022-08-19T10:42:49.897Z,56.26
2022-08-19T10:43:57.143Z,55.80
2022-08-19T10:45:01.769Z,55.44
2022-08-19T10:46:14.058Z,54.62
2022-08-19T10:47:24.459Z,55.20
2022-08-19T10:48:19.555Z,55.04
2022-08-19T10:49:21.889Z,55.24
2022-08-19T10:50:28.455Z,55.33
2022-08-19T10:51:32.721Z,55.87
2022-08-19T10:52:39.090Z,55.60
2022-08-19T10:53:40.622Z,55.58
2022-08-19T10:54:42.786Z,55.30
2022-08-19T10:55:45.490Z,55.17
2022-08-19T10:56:48.625Z,54.98
2022-08-19T10:58:02.346Z,54.86
2022-08-19T10:58:55.300Z,54.84
2022-08-19T10:59:58.061Z,55.26
2022-08-19T11:01:00.567Z,55.35
2022-08-19T11:02:06.379Z,54.68
2022-08-19T11:03:09.618Z,55.13
2022-08-19T11:04:13.388Z,54.45
2022-08-19T11:05:16.514Z,55.01
2022-08-19T11:06:19.824Z,54.84
2022-08-19T11:07:22.177Z,54.86
2022-08-19T11:08:24.364Z,55.27
2022-08-19T11:09:33.660Z,55.70
2022-08-19T11:10:32.649Z,55.15
2022-08-19T11:11:35.604Z,55.09
2022-08-19T11:12:41.162Z,55.53
2022-08-19T11:13:44.451Z,55.33
2022-08-19T11:14:46.588Z,55.28
2022-08-19T11:16:02.701Z,54.74
2022-08-19T11:17:05.771Z,54.83
2022-08-19T11:18:07.933Z,54.55
2022-08-19T11:19:13.669Z,54.46
2022-08-19T11:20:17.207Z,53.53
2022-08-19T11:21:23.490Z,52.87
2022-08-19T11:22:31.305Z,53.02
2022-08-19T11:23:31.625Z,53.11
2022-08-19T11:24:33.893Z,52.99
2022-08-19T11:25:38.790Z,53.74
2022-08-19T11:26:43.081Z,53.32
2022-08-19T11:27:45.450Z,53.31
2022-08-19T11:28:48.315Z,53.14
2022-08-19T11:29:50.811Z,53.47
2022-08-19T11:30:54.714Z,53.97
2022-08-19T11:31:56.980Z,53.98
2022-08-19T11:32:59.714Z,54.09
2022-08-19T11:34:04.797Z,54.30
2022-08-19T11:35:07.705Z,54.31
2022-08-19T11:36:10.156Z,54.31
2022-08-19T11:37:14.887Z,54.28
2022-08-19T11:38:17.133Z,54.31
2022-08-19T11:39:22.632Z,53.72
2022-08-19T11:40:26.988Z,53.87
2022-08-19T11:41:30.023Z,54.18
2022-08-19T11:42:34.187Z,54.04
2022-08-19T11:43:37.968Z,54.16
2022-08-19T11:44:41.812Z,54.06
2022-08-19T11:45:44.124Z,53.74
2022-08-19T11:46:47.621Z,53.58
2022-08-19T11:47:49.901Z,53.50
2022-08-19T11:48:52.751Z,53.86
2022-08-19T11:49:54.944Z,53.48
2022-08-19T11:50:57.210Z,53.49
2022-08-19T11:52:00.394Z,53.87
2022-08-19T11:53:02.714Z,54.37
2022-08-19T11:54:06.767Z,55.03
2022-08-19T11:55:09.829Z,55.21
2022-08-19T11:56:13.476Z,55.69
2022-08-19T11:57:15.687Z,55.92
2022-08-19T11:58:19.402Z,56.36
2022-08-19T11:59:21.620Z,57.25
2022-08-19T12:00:24.570Z,56.99
2022-08-19T12:01:27.755Z,57.32
2022-08-19T12:02:30.107Z,57.36
2022-08-19T12:03:33.165Z,57.64
2022-08-19T12:04:35.860Z,57.96
2022-08-19T12:05:38.859Z,57.70
2022-08-19T12:06:41.470Z,57.84
2022-08-19T12:07:43.576Z,58.31
2022-08-19T12:08:46.993Z,57.93
2022-08-19T12:09:49.305Z,57.93
2022-08-19T12:10:52.593Z,58.26
2022-08-19T12:11:55.057Z,58.11
2022-08-19T12:12:59.050Z,57.96
2022-08-19T12:14:01.521Z,57.71
2022-08-19T12:15:04.291Z,57.65
2022-08-19T12:16:13.099Z,58.02
2022-08-19T12:17:15.080Z,57.57
2022-08-19T12:18:17.827Z,57.57
2022-08-19T12:19:22.416Z,58.28
2022-08-19T12:20:24.899Z,58.16
2022-08-19T12:21:28.298Z,58.33
2022-08-19T12:22:30.861Z,58.82
2022-08-19T12:23:33.449Z,58.75
2022-08-19T12:24:35.681Z,58.14
2022-08-19T12:25:40.148Z,58.14
2022-08-19T12:26:52.765Z,58.59
2022-08-19T12:27:56.754Z,58.96
2022-08-19T12:28:51.436Z,59.14
2022-08-19T12:29:53.645Z,59.64
2022-08-19T12:30:57.285Z,59.17
2022-08-19T12:32:00.104Z,59.31
2022-08-19T12:33:02.773Z,59.48
2022-08-19T12:34:04.874Z,59.39
2022-08-19T12:35:08.498Z,59.48
2022-08-19T12:36:14.227Z,59.62
2022-08-19T12:37:16.540Z,59.59
2022-08-19T12:38:19.212Z,60.17
2022-08-19T12:39:22.436Z,60.31
2022-08-19T12:40:26.430Z,60.12
2022-08-19T12:41:29.073Z,60.46
2022-08-19T12:42:31.310Z,60.53
2022-08-19T12:43:35.410Z,60.34
2022-08-19T12:44:39.509Z,60.21
2022-08-19T12:45:43.580Z,60.02
2022-08-19T12:46:47.374Z,60.21
2022-08-19T12:47:51.434Z,60.00
2022-08-19T12:48:56.857Z,60.08
2022-08-19T12:49:59.743Z,59.93
2022-08-19T12:51:07.584Z,59.88
2022-08-19T12:52:09.863Z,59.60
2022-08-19T12:53:12.826Z,59.63
2022-08-19T12:54:14.893Z,59.40
2022-08-19T12:55:17.154Z,59.14
2022-08-19T12:56:23.193Z,59.50
2022-08-19T12:57:32.875Z,59.09
2022-08-19T12:58:31.959Z,59.09
2022-08-19T12:59:36.196Z,58.77
2022-08-19T13:00:40.071Z,59.30
2022-08-19T13:01:43.310Z,59.01
2022-08-19T13:02:48.354Z,59.00
2022-08-19T13:03:51.133Z,59.22
2022-08-19T13:04:54.702Z,59.50
2022-08-19T13:05:57.371Z,59.23
2022-08-19T13:07:00.043Z,59.31
2022-08-19T13:08:03.070Z,59.54
2022-08-19T13:09:05.998Z,59.66
2022-08-19T13:10:12.240Z,60.05
2022-08-19T13:11:20.395Z,60.25
2022-08-19T13:12:24.848Z,59.36
2022-08-19T13:13:27.377Z,59.31
2022-08-19T13:14:31.737Z,59.11
2022-08-19T13:15:38.620Z,59.12
2022-08-19T13:16:41.718Z,59.45
2022-08-19T13:17:43.934Z,59.30
2022-08-19T13:18:47.836Z,59.30
2022-08-19T13:19:50.260Z,58.88
2022-08-19T13:20:53.204Z,59.14
2022-08-19T13:22:00.104Z,59.29
2022-08-19T13:22:59.927Z,58.88
2022-08-19T13:24:02.563Z,59.08
2022-08-19T13:25:06.771Z,59.11
2022-08-19T13:26:11.421Z,58.82
2022-08-19T13:27:13.801Z,59.18
2022-08-19T13:28:16.052Z,59.26
2022-08-19T13:29:18.757Z,59.37
2022-08-19T13:30:22.625Z,59.42
2022-08-19T13:31:28.348Z,59.09
2022-08-19T13:32:31.650Z,59.32
2022-08-19T13:33:33.892Z,59.34
2022-08-19T13:34:36.269Z,59.33
2022-08-19T13:35:53.408Z,59.12
2022-08-19T13:36:56.729Z,58.94
2022-08-19T13:37:59.270Z,59.49
2022-08-19T13:39:01.998Z,59.69
2022-08-19T13:40:06.384Z,59.09
2022-08-19T13:41:12.101Z,59.40
2022-08-19T13:42:12.811Z,59.54
2022-08-19T13:43:22.901Z,59.95
2022-08-19T13:44:20.070Z,60.23
2022-08-19T13:45:24.544Z,60.06
2022-08-19T13:46:27.939Z,60.30
2022-08-19T13:47:30.224Z,60.32
2022-08-19T13:48:32.537Z,59.42